Lamar, Indiana
Current Conditions -  °F | °C
As of 12:35 PM on Thursday 29 Jan 2015 (Local Time) from KHNB Reporting Station
Overcast Overcast  
Wind Chill: 32°   Ceiling: 1800
Heat Index: 41°   Visibility: 10mi
Dew Point: 32°   Wind: 20mph
Humidity: 70%   Direction: 300°WNW
Pressure: 30.05"   Gusts: 29mph
Location:  38.07°N, 86.91°W
Report Text: KHNB 291835Z AUTO 30017G25KT 10SM BKN018 OVC028 05/00 A3005 RMK AO1
Loading
Personal Weather Stations






























Interactive Weather Map New forecast layout! Learn more

10-Day Weather Forecast

Advertisements
Track Severe Weather on mobile